createdAt,value
2018-12-03T00:00:16.742Z,2.00
2018-12-03T00:02:45.366Z,2.30
2018-12-03T00:05:13.826Z,3.00
2018-12-03T00:07:42.303Z,2.50
2018-12-03T00:10:10.824Z,2.50
2018-12-03T00:12:39.297Z,2.00
2018-12-03T00:15:08.291Z,2.50
2018-12-03T00:17:36.766Z,1.97
2018-12-03T00:20:08.030Z,2.13
2018-12-03T00:22:36.547Z,2.77
2018-12-03T00:25:06.286Z,2.90
2018-12-03T00:27:34.777Z,2.40
2018-12-03T00:30:03.340Z,2.73
2018-12-03T00:32:31.860Z,2.17
2018-12-03T00:35:00.338Z,2.00
2018-12-03T00:37:28.895Z,2.27
2018-12-03T00:39:57.379Z,2.90
2018-12-03T00:42:25.864Z,3.00
2018-12-03T00:44:54.347Z,2.60
2018-12-03T00:47:22.828Z,3.00
2018-12-03T00:49:51.340Z,2.67
2018-12-03T00:52:19.817Z,2.30
2018-12-03T00:54:48.304Z,1.77
2018-12-03T00:57:16.774Z,1.80
2018-12-03T00:59:45.240Z,1.97
2018-12-03T01:02:19.123Z,2.00
2018-12-03T01:04:47.603Z,1.60
2018-12-03T01:07:16.174Z,1.50
2018-12-03T01:09:44.692Z,1.50
2018-12-03T01:12:13.184Z,1.30
2018-12-03T01:14:41.682Z,1.20
2018-12-03T01:17:10.171Z,1.00
2018-12-03T01:19:38.663Z,0.87
2018-12-03T01:22:07.191Z,0.50
2018-12-03T01:24:35.704Z,0.70
2018-12-03T01:27:04.240Z,0.70
2018-12-03T01:29:32.730Z,0.50
2018-12-03T01:32:01.202Z,0.50
2018-12-03T01:34:29.700Z,0.40
2018-12-03T01:36:58.164Z,0.37
2018-12-03T01:39:26.643Z,0.40
2018-12-03T01:41:55.137Z,0.77
2018-12-03T01:44:23.616Z,0.60
2018-12-03T01:46:52.167Z,0.43
2018-12-03T01:49:20.638Z,0.63
2018-12-03T01:51:49.131Z,0.50
2018-12-03T01:54:17.591Z,0.63
2018-12-03T01:56:46.088Z,0.50
2018-12-03T01:59:14.563Z,0.60
2018-12-03T02:01:43.047Z,0.43
2018-12-03T02:04:11.527Z,0.53
2018-12-03T02:06:40.012Z,0.40
2018-12-03T02:09:09.556Z,0.50
2018-12-03T02:11:38.051Z,0.50
2018-12-03T02:14:07.330Z,0.40
2018-12-03T02:16:35.810Z,0.40
2018-12-03T02:19:04.331Z,0.47
2018-12-03T02:21:32.795Z,0.30
2018-12-03T02:24:01.242Z,0.33
2018-12-03T02:26:29.712Z,0.50
2018-12-03T02:28:58.138Z,0.60
2018-12-03T02:31:26.594Z,0.50
2018-12-03T02:33:55.035Z,0.50
2018-12-03T02:36:23.492Z,0.30
2018-12-03T02:38:51.982Z,0.30
2018-12-03T02:41:20.419Z,0.50
2018-12-03T02:43:48.915Z,0.50
2018-12-03T02:46:17.343Z,0.30
2018-12-03T02:48:45.826Z,0.40
2018-12-03T02:51:14.261Z,0.50
2018-12-03T02:53:42.703Z,0.40
2018-12-03T02:56:11.190Z,0.33
2018-12-03T02:58:39.701Z,0.50
2018-12-03T03:01:08.126Z,0.40
2018-12-03T03:03:36.587Z,0.40
2018-12-03T03:06:05.126Z,0.40
2018-12-03T03:08:33.583Z,0.30
2018-12-03T03:11:02.025Z,0.30
2018-12-03T03:13:30.474Z,0.30
2018-12-03T03:15:58.907Z,0.30
2018-12-03T03:18:27.359Z,0.20
2018-12-03T03:20:55.850Z,0.20
2018-12-03T03:23:24.286Z,0.30
2018-12-03T03:25:52.714Z,0.30
2018-12-03T03:28:21.171Z,0.50
2018-12-03T03:30:49.635Z,0.50
2018-12-03T03:33:18.088Z,0.67
2018-12-03T03:35:46.535Z,0.70
2018-12-03T03:38:14.999Z,0.73
2018-12-03T03:40:43.432Z,0.60
2018-12-03T03:43:11.891Z,0.40
2018-12-03T03:45:40.327Z,0.50
2018-12-03T03:48:08.821Z,0.60
2018-12-03T03:50:37.251Z,0.63
2018-12-03T03:53:05.915Z,0.60
2018-12-03T03:55:34.566Z,0.50
2018-12-03T03:58:03.030Z,0.50
2018-12-03T04:00:31.454Z,0.33
2018-12-03T04:02:59.991Z,0.30
2018-12-03T04:05:28.448Z,0.37
2018-12-03T04:07:56.914Z,0.50
2018-12-03T04:10:25.404Z,0.50
2018-12-03T04:12:53.879Z,0.50
2018-12-03T04:15:22.344Z,0.40
2018-12-03T04:17:50.793Z,0.57
2018-12-03T04:20:20.290Z,0.30
2018-12-03T04:22:50.275Z,0.30
2018-12-03T04:25:18.774Z,0.50
2018-12-03T04:27:47.934Z,0.40
2018-12-03T04:30:17.786Z,0.40
2018-12-03T04:32:46.291Z,0.40
2018-12-03T04:35:15.075Z,0.40
2018-12-03T04:37:44.142Z,0.43
2018-12-03T04:40:14.683Z,0.40
2018-12-03T04:42:43.122Z,0.47
2018-12-03T04:45:13.797Z,0.50
2018-12-03T04:47:42.334Z,0.73
2018-12-03T04:50:13.904Z,0.47
2018-12-03T04:52:42.370Z,0.40
2018-12-03T04:55:11.345Z,0.50
2018-12-03T04:57:39.799Z,1.80
2018-12-03T05:00:10.585Z,0.33
2018-12-03T05:02:39.148Z,0.60
2018-12-03T05:05:08.315Z,0.30
2018-12-03T05:07:36.838Z,0.60
2018-12-03T05:10:08.388Z,0.60
2018-12-03T05:12:36.834Z,0.50
2018-12-03T05:15:07.180Z,0.50
2018-12-03T05:17:35.646Z,0.50
2018-12-03T05:20:04.436Z,0.70
2018-12-03T05:22:32.890Z,0.60
2018-12-03T05:25:01.361Z,0.60
2018-12-03T05:27:29.839Z,0.90
2018-12-03T05:29:58.336Z,0.50
2018-12-03T05:32:26.803Z,0.57
2018-12-03T05:34:55.296Z,0.70
2018-12-03T05:37:23.759Z,0.90
2018-12-03T05:39:52.260Z,1.90
2018-12-03T05:42:20.739Z,1.60
2018-12-03T05:44:49.231Z,0.63
2018-12-03T05:47:17.736Z,0.70
2018-12-03T05:49:46.291Z,0.90
2018-12-03T05:52:14.767Z,1.43
2018-12-03T05:54:43.275Z,1.87
2018-12-03T05:57:11.775Z,3.00
2018-12-03T05:59:40.250Z,2.37
2018-12-03T06:02:08.747Z,1.77
2018-12-03T06:04:37.219Z,1.70
2018-12-03T06:07:05.891Z,1.83
2018-12-03T06:09:34.371Z,1.87
2018-12-03T06:12:02.868Z,1.17
2018-12-03T06:14:31.359Z,1.83
2018-12-03T06:16:59.871Z,1.40
2018-12-03T06:19:28.344Z,1.33
2018-12-03T06:21:56.849Z,0.53
2018-12-03T06:24:25.327Z,0.30
2018-12-03T06:26:53.839Z,0.80
2018-12-03T06:29:22.330Z,0.50
2018-12-03T06:31:50.836Z,0.77
2018-12-03T06:34:19.328Z,0.70
2018-12-03T06:36:47.903Z,0.50
2018-12-03T06:39:16.377Z,0.20
2018-12-03T06:41:44.880Z,0.43
2018-12-03T06:44:13.351Z,0.50
2018-12-03T06:46:41.880Z,0.40
2018-12-03T06:49:10.340Z,0.60
2018-12-03T06:51:38.806Z,0.50
2018-12-03T06:54:07.259Z,0.30
2018-12-03T06:56:35.683Z,0.60
2018-12-03T06:59:04.129Z,0.80
2018-12-03T07:01:32.547Z,0.50
2018-12-03T07:04:00.990Z,0.60
2018-12-03T07:06:29.414Z,0.50
2018-12-03T07:08:57.951Z,0.40
2018-12-03T07:11:26.371Z,0.40
2018-12-03T07:13:54.806Z,0.60
2018-12-03T07:16:23.227Z,0.60
2018-12-03T07:18:51.695Z,1.33
2018-12-03T07:21:20.115Z,0.60
2018-12-03T07:23:48.567Z,1.10
2018-12-03T07:26:16.994Z,0.63
2018-12-03T07:28:45.443Z,0.53
2018-12-03T07:31:13.925Z,0.70
2018-12-03T07:33:42.372Z,0.80
2018-12-03T07:36:10.795Z,0.80
2018-12-03T07:38:39.274Z,0.30
2018-12-03T07:41:07.698Z,0.77
2018-12-03T07:43:36.158Z,0.50
2018-12-03T07:46:04.873Z,0.70
2018-12-03T07:48:33.342Z,0.80
2018-12-03T07:51:01.782Z,0.40
2018-12-03T07:53:30.239Z,0.70
2018-12-03T07:55:58.658Z,0.60
2018-12-03T07:58:27.114Z,0.60
2018-12-03T08:00:56.451Z,1.23
2018-12-03T08:03:25.019Z,0.70
2018-12-03T08:05:53.539Z,0.90
2018-12-03T08:08:21.991Z,0.63
2018-12-03T08:10:52.491Z,0.80
2018-12-03T08:13:21.204Z,0.60
2018-12-03T08:15:49.811Z,1.60
2018-12-03T08:18:19.850Z,1.50
2018-12-03T08:20:59.091Z,0.73
2018-12-03T08:23:33.422Z,0.80
2018-12-03T08:26:02.381Z,0.73
2018-12-03T08:28:30.842Z,1.20
2018-12-03T08:30:59.255Z,0.80
2018-12-03T08:33:27.703Z,0.80
2018-12-03T08:35:56.146Z,0.90
2018-12-03T08:38:24.624Z,0.97
2018-12-03T08:40:53.042Z,1.10
2018-12-03T08:43:21.474Z,1.10
2018-12-03T08:45:51.366Z,0.90
2018-12-03T08:48:19.820Z,0.80
2018-12-03T08:50:48.271Z,0.90
2018-12-03T08:53:16.685Z,1.50
2018-12-03T08:55:45.126Z,1.20
2018-12-03T08:58:15.507Z,1.30
2018-12-03T09:00:45.543Z,1.40
2018-12-03T09:03:17.410Z,1.63
2018-12-03T09:05:45.844Z,2.10
2018-12-03T09:08:14.291Z,1.30
2018-12-03T09:10:43.654Z,1.93
2018-12-03T09:13:17.206Z,1.97
2018-12-03T09:15:52.275Z,2.20
2018-12-03T09:18:20.755Z,2.53
2018-12-03T09:20:49.202Z,1.87
2018-12-03T09:23:17.621Z,1.90
2018-12-03T09:25:46.062Z,2.30
2018-12-03T09:28:14.477Z,2.10
2018-12-03T09:30:42.922Z,2.17
2018-12-03T09:33:11.362Z,2.77
2018-12-03T09:35:39.795Z,7.43
2018-12-03T09:38:08.238Z,20.93
2018-12-03T09:40:36.681Z,2.57
2018-12-03T09:43:05.321Z,4.30
2018-12-03T09:45:33.806Z,2.40
2018-12-03T09:48:02.910Z,1.63
2018-12-03T09:50:31.457Z,1.63
2018-12-03T09:52:59.986Z,1.80
2018-12-03T09:55:30.794Z,1.67
2018-12-03T09:58:15.951Z,1.50
2018-12-03T10:00:44.631Z,2.17
2018-12-03T10:03:19.850Z,1.03
2018-12-03T10:05:50.779Z,1.70
2018-12-03T10:08:24.338Z,1.57
2018-12-03T10:10:55.506Z,1.50
2018-12-03T10:13:24.450Z,0.90
2018-12-03T10:15:52.933Z,0.77
2018-12-03T10:18:21.371Z,1.37
2018-12-03T10:20:51.444Z,1.47
2018-12-03T10:23:19.949Z,0.97
2018-12-03T10:25:50.319Z,1.40
2018-12-03T10:28:18.822Z,1.20
2018-12-03T10:30:47.450Z,1.97
2018-12-03T10:33:20.703Z,1.83
2018-12-03T10:35:49.514Z,2.00
2018-12-03T10:38:21.991Z,2.13
2018-12-03T10:41:01.269Z,2.30
2018-12-03T10:43:29.727Z,2.60
2018-12-03T10:45:58.167Z,2.40
2018-12-03T10:48:26.645Z,2.47
2018-12-03T10:50:55.157Z,3.17
2018-12-03T10:53:25.002Z,2.20
2018-12-03T10:55:53.486Z,3.90
2018-12-03T10:58:21.993Z,2.30
2018-12-03T11:01:00.410Z,4.30
2018-12-03T11:03:34.244Z,3.60
2018-12-03T11:06:14.966Z,2.53
2018-12-03T11:08:43.505Z,2.83
2018-12-03T11:11:11.990Z,3.10
2018-12-03T11:13:40.516Z,3.40
2018-12-03T11:16:11.447Z,3.30
2018-12-03T11:18:46.414Z,2.80
2018-12-03T11:21:14.891Z,2.40
2018-12-03T11:23:43.538Z,3.50
2018-12-03T11:26:12.010Z,2.80
2018-12-03T11:28:44.075Z,1.90
2018-12-03T11:31:19.714Z,1.73
2018-12-03T11:33:48.322Z,1.50
2018-12-03T11:36:21.683Z,1.53
2018-12-03T11:40:02.759Z,6.40
2018-12-03T11:42:34.140Z,1.60
2018-12-03T11:45:02.598Z,2.10
2018-12-03T11:47:31.093Z,2.33
2018-12-03T11:49:59.547Z,4.57
2018-12-03T11:52:28.074Z,2.27
2018-12-03T11:54:56.568Z,1.97
2018-12-03T11:57:25.024Z,2.30
2018-12-03T11:59:53.610Z,1.90
2018-12-03T12:02:22.048Z,1.83
2018-12-03T12:04:50.506Z,0.60
2018-12-03T12:07:18.963Z,1.10
2018-12-03T12:09:47.423Z,1.80
2018-12-03T12:12:15.854Z,3.63
2018-12-03T12:14:44.354Z,1.50
2018-12-03T12:17:12.795Z,1.30
2018-12-03T12:19:41.327Z,1.00
2018-12-03T12:22:09.783Z,1.07
2018-12-03T12:24:38.267Z,0.90
2018-12-03T12:27:08.240Z,1.73
2018-12-03T12:29:36.723Z,0.40
2018-12-03T12:32:05.397Z,0.80
2018-12-03T12:34:33.858Z,0.60
2018-12-03T12:37:02.319Z,0.50
2018-12-03T12:39:30.816Z,1.20
2018-12-03T12:41:59.299Z,1.40
2018-12-03T12:44:27.820Z,0.60
2018-12-03T12:46:56.299Z,1.30
2018-12-03T12:49:24.767Z,1.23
2018-12-03T12:51:53.215Z,0.93
2018-12-03T12:54:21.690Z,0.50
2018-12-03T12:56:50.142Z,0.60
2018-12-03T12:59:18.579Z,0.40
2018-12-03T13:01:47.118Z,0.40
2018-12-03T13:04:15.659Z,0.50
2018-12-03T13:06:44.130Z,0.63
2018-12-03T13:09:12.572Z,0.53
2018-12-03T13:11:41.379Z,1.07
2018-12-03T13:14:11.737Z,0.90
2018-12-03T13:16:40.241Z,0.80
2018-12-03T13:19:09.434Z,0.90
2018-12-03T13:21:37.892Z,1.10
2018-12-03T13:24:06.754Z,0.90
2018-12-03T13:26:37.541Z,1.50
2018-12-03T13:29:06.637Z,1.00
2018-12-03T13:31:35.100Z,1.03
2018-12-03T13:34:03.602Z,0.87
2018-12-03T13:36:32.118Z,1.00
2018-12-03T13:39:00.558Z,2.13
2018-12-03T13:41:29.087Z,0.70
2018-12-03T13:43:57.571Z,0.70
2018-12-03T13:46:26.162Z,0.50
2018-12-03T13:48:54.702Z,0.70
2018-12-03T13:51:23.169Z,1.07
2018-12-03T13:53:51.695Z,0.50
2018-12-03T13:56:20.150Z,0.53
2018-12-03T13:58:48.592Z,0.80
2018-12-03T14:01:17.095Z,0.40
2018-12-03T14:03:45.540Z,0.57
2018-12-03T14:06:34.086Z,0.33
2018-12-03T14:09:09.922Z,0.60
2018-12-03T14:11:42.694Z,0.50
2018-12-03T14:15:30.123Z,0.37
2018-12-03T14:18:12.034Z,0.37
2018-12-03T14:20:43.039Z,0.80
2018-12-03T14:23:13.594Z,0.43
2018-12-03T14:25:42.034Z,0.50
2018-12-03T14:28:10.519Z,0.50
2018-12-03T14:30:38.980Z,0.40
2018-12-03T14:33:07.453Z,0.50
2018-12-03T14:35:35.914Z,0.50
2018-12-03T14:38:04.414Z,0.40
2018-12-03T14:40:32.874Z,0.40
2018-12-03T14:43:01.362Z,0.60
2018-12-03T14:45:29.838Z,0.40
2018-12-03T14:47:58.326Z,0.93
2018-12-03T14:50:26.785Z,0.50
2018-12-03T14:52:55.302Z,0.40
2018-12-03T14:55:23.769Z,0.80
2018-12-03T14:57:52.239Z,0.53
2018-12-03T15:00:20.724Z,0.53
2018-12-03T15:02:49.199Z,0.63
2018-12-03T15:05:17.668Z,0.50
2018-12-03T15:07:46.190Z,0.47
2018-12-03T15:10:14.671Z,0.40
2018-12-03T15:12:43.199Z,0.40
2018-12-03T15:15:11.960Z,0.50
2018-12-03T15:17:42.456Z,5.33
2018-12-03T15:20:10.919Z,0.80
2018-12-03T15:22:39.502Z,3.07
2018-12-03T15:25:10.222Z,0.90
2018-12-03T15:27:38.694Z,0.70
2018-12-03T15:30:08.873Z,1.20
2018-12-03T15:32:37.410Z,0.70
2018-12-03T15:35:07.771Z,0.70
2018-12-03T15:37:36.265Z,0.60
2018-12-03T15:40:08.394Z,1.47
2018-12-03T15:42:36.849Z,1.17
2018-12-03T15:45:07.661Z,0.60
2018-12-03T15:47:36.131Z,1.10
2018-12-03T15:50:05.454Z,0.50
2018-12-03T15:52:33.898Z,0.93
2018-12-03T15:55:02.440Z,2.07
2018-12-03T15:57:30.862Z,1.60
2018-12-03T15:59:59.298Z,0.83
2018-12-03T16:02:27.863Z,0.70
2018-12-03T16:04:56.286Z,1.00
2018-12-03T16:07:24.694Z,0.70
2018-12-03T16:09:53.142Z,0.70
2018-12-03T16:12:21.579Z,0.87
2018-12-03T16:14:50.044Z,0.90
2018-12-03T16:17:20.268Z,1.40
2018-12-03T16:19:46.999Z,1.50
2018-12-03T16:22:15.407Z,0.60
2018-12-03T16:24:43.863Z,0.63
2018-12-03T16:27:12.281Z,1.47
2018-12-03T16:29:40.727Z,1.40
2018-12-03T16:32:09.162Z,0.70
2018-12-03T16:34:37.597Z,1.47
2018-12-03T16:37:07.227Z,1.30
2018-12-03T16:39:34.505Z,1.00
2018-12-03T16:42:02.922Z,0.80
2018-12-03T16:44:31.426Z,0.80
2018-12-03T16:46:59.869Z,0.77
2018-12-03T16:49:28.320Z,0.97
2018-12-03T16:51:56.739Z,1.43
2018-12-03T16:54:25.159Z,1.30
2018-12-03T16:56:53.600Z,1.60
2018-12-03T16:59:22.101Z,1.70
2018-12-03T17:01:50.557Z,1.93
2018-12-03T17:04:18.978Z,2.07
2018-12-03T17:06:47.555Z,2.77
2018-12-03T17:09:16.062Z,1.40
2018-12-03T17:11:45.006Z,2.40
2018-12-03T17:14:13.418Z,1.50
2018-12-03T17:16:41.857Z,2.30
2018-12-03T17:19:10.345Z,1.77
2018-12-03T17:21:53.794Z,1.80
2018-12-03T17:24:26.443Z,1.47
2018-12-03T17:26:54.931Z,1.70
2018-12-03T17:29:23.340Z,1.63
2018-12-03T17:31:51.791Z,1.30
2018-12-03T17:34:20.240Z,2.30
2018-12-03T17:36:48.674Z,1.80
2018-12-03T17:39:17.081Z,1.93
2018-12-03T17:41:45.524Z,2.30
2018-12-03T17:44:13.950Z,2.67
2018-12-03T17:46:42.385Z,1.87
2018-12-03T17:49:10.847Z,2.20
2018-12-03T17:51:39.279Z,2.03
2018-12-03T17:54:07.697Z,2.40
2018-12-03T17:56:36.135Z,2.10
2018-12-03T17:59:04.566Z,1.87
2018-12-03T18:01:33.006Z,4.27
2018-12-03T18:04:01.424Z,5.23
2018-12-03T18:06:29.882Z,7.30
2018-12-03T18:08:58.655Z,5.10
2018-12-03T18:11:27.142Z,5.23
2018-12-03T18:13:55.567Z,3.10
2018-12-03T18:16:24.043Z,5.20
2018-12-03T18:18:52.456Z,3.77
2018-12-03T18:21:20.894Z,2.73
2018-12-03T18:23:49.326Z,2.43
2018-12-03T18:26:17.816Z,2.27
2018-12-03T18:28:46.254Z,2.30
2018-12-03T18:31:14.670Z,3.83
2018-12-03T18:33:43.097Z,3.00
2018-12-03T18:36:11.518Z,2.40
2018-12-03T18:38:39.962Z,2.50
2018-12-03T18:41:08.418Z,2.50
2018-12-03T18:43:36.954Z,2.40
2018-12-03T18:46:05.423Z,2.90
2018-12-03T18:48:34.226Z,5.00
2018-12-03T18:51:02.675Z,5.40
2018-12-03T18:53:31.614Z,5.03
2018-12-03T18:56:00.047Z,5.83
2018-12-03T18:58:35.280Z,5.57
2018-12-03T19:01:02.769Z,5.30
2018-12-03T19:03:31.273Z,4.90
2018-12-03T19:05:59.710Z,5.57
2018-12-03T19:08:28.146Z,6.00
2018-12-03T19:10:56.554Z,4.30
2018-12-03T19:13:24.989Z,3.73
2018-12-03T19:15:53.394Z,4.10
2018-12-03T19:18:21.831Z,3.50
2018-12-03T19:20:50.249Z,4.40
2018-12-03T19:23:18.694Z,4.20
2018-12-03T19:25:47.118Z,3.00
2018-12-03T19:28:15.586Z,3.20
2018-12-03T19:30:43.998Z,3.23
2018-12-03T19:33:12.439Z,4.60
2018-12-03T19:35:40.873Z,4.90
2018-12-03T19:38:09.295Z,5.27
2018-12-03T19:40:37.718Z,4.50
2018-12-03T19:43:06.140Z,5.47
2018-12-03T19:45:34.566Z,4.03
2018-12-03T19:48:03.030Z,3.23
2018-12-03T19:50:31.483Z,3.70
2018-12-03T19:52:59.968Z,3.47
2018-12-03T19:55:29.091Z,2.40
2018-12-03T19:58:34.751Z,2.47
2018-12-03T20:01:03.275Z,2.50
2018-12-03T20:03:31.754Z,2.40
2018-12-03T20:06:00.213Z,2.17
2018-12-03T20:08:28.654Z,1.90
2018-12-03T20:10:57.225Z,1.60
2018-12-03T20:13:25.669Z,2.23
2018-12-03T20:15:54.191Z,1.60
2018-12-03T20:18:22.606Z,1.57
2018-12-03T20:21:02.043Z,1.80
2018-12-03T20:23:34.718Z,1.60
2018-12-03T20:26:06.751Z,1.60
2018-12-03T20:29:16.036Z,1.70
2018-12-03T20:32:13.722Z,1.70
2018-12-03T20:34:48.015Z,1.60
2018-12-03T20:39:31.121Z,1.20
2018-12-03T20:42:02.627Z,8.20
2018-12-03T20:44:40.941Z,7.10
2018-12-03T20:47:20.154Z,3.53
2018-12-03T20:50:26.806Z,2.60
2018-12-03T20:52:55.246Z,2.57
2018-12-03T20:55:28.199Z,1.57
2018-12-03T20:57:56.658Z,1.90
2018-12-03T21:00:25.182Z,1.40
2018-12-03T21:02:57.316Z,1.10
2018-12-03T21:05:25.766Z,2.77
2018-12-03T21:07:54.214Z,2.00
2018-12-03T21:10:22.663Z,2.00
2018-12-03T21:12:51.231Z,1.37
2018-12-03T21:15:19.763Z,1.63
2018-12-03T21:17:48.370Z,1.57
2018-12-03T21:20:20.381Z,1.50
2018-12-03T21:22:48.842Z,1.90
2018-12-03T21:25:17.283Z,1.03
2018-12-03T21:27:45.757Z,2.00
2018-12-03T21:30:14.238Z,2.07
2018-12-03T21:32:42.694Z,2.20
2018-12-03T21:35:11.151Z,1.97
2018-12-03T21:37:39.618Z,2.17
2018-12-03T21:40:08.887Z,2.27
2018-12-03T21:42:37.346Z,2.27
2018-12-03T21:45:06.455Z,1.90
2018-12-03T21:47:34.934Z,2.03
2018-12-03T21:50:05.230Z,1.70
2018-12-03T21:52:31.930Z,2.70
2018-12-03T21:55:00.370Z,2.13
2018-12-03T21:57:28.811Z,2.27
2018-12-03T21:59:57.240Z,1.93
2018-12-03T22:02:25.699Z,1.90
2018-12-03T22:04:54.117Z,2.10
2018-12-03T22:07:22.587Z,1.80
2018-12-03T22:09:51.043Z,2.10
2018-12-03T22:12:19.482Z,1.63
2018-12-03T22:14:47.891Z,1.93
2018-12-03T22:17:16.341Z,2.10
2018-12-03T22:19:44.766Z,2.23
2018-12-03T22:22:13.215Z,2.50
2018-12-03T22:24:41.691Z,2.17
2018-12-03T22:27:10.182Z,2.30
2018-12-03T22:29:38.595Z,2.10
2018-12-03T22:32:07.063Z,1.70
2018-12-03T22:34:35.483Z,1.90
2018-12-03T22:37:03.948Z,1.70
2018-12-03T22:39:32.374Z,1.97
2018-12-03T22:42:00.818Z,2.07
2018-12-03T22:44:29.286Z,1.80
2018-12-03T22:46:57.697Z,1.30
2018-12-03T22:49:26.152Z,1.40
2018-12-03T22:51:54.596Z,1.70
2018-12-03T22:54:23.050Z,1.80
2018-12-03T22:56:51.466Z,1.40
2018-12-03T22:59:19.898Z,1.80
2018-12-03T23:01:48.347Z,1.10
2018-12-03T23:04:16.773Z,1.07
2018-12-03T23:06:45.201Z,1.30
2018-12-03T23:09:13.754Z,1.27
2018-12-03T23:11:42.175Z,1.20
2018-12-03T23:14:10.618Z,1.03
2018-12-03T23:16:39.070Z,1.07
2018-12-03T23:19:07.587Z,1.37
2018-12-03T23:21:36.010Z,1.33
2018-12-03T23:24:04.470Z,1.30
2018-12-03T23:26:32.927Z,1.17
2018-12-03T23:29:01.362Z,1.00
2018-12-03T23:31:29.779Z,0.93
2018-12-03T23:33:58.215Z,1.30
2018-12-03T23:36:26.623Z,1.27
2018-12-03T23:38:55.059Z,1.37
2018-12-03T23:41:23.470Z,1.03
2018-12-03T23:43:51.922Z,1.23
2018-12-03T23:46:20.330Z,1.40
2018-12-03T23:48:48.804Z,1.33
2018-12-03T23:51:17.259Z,1.03
2018-12-03T23:53:45.727Z,1.80
2018-12-03T23:56:14.170Z,1.70
2018-12-03T23:58:42.594Z,1.37
